• Join FlightAware (Why Join?)
  • Login
  • US Flag 
02:59PM EDT


 

Airport Tracker/Info


-or-


 

Live Flight TrackerFlight Track Log ✈ UAL395 ✈ 10-Oct-2013 ✈ KEWR - KFLL

Flight Track Log - Related Links

Times and Time Zones

All times are in EDT time to prevent confusion due to time zone crossing. See the UAL395 flight status page for this flight to view local times or setup timezone preferences in your user account.

Time Position Orientation Groundspeed Altitude Reporting Facility
EDT Latitude Longitude Course Direction KTS MPH feet Rate Location/Type
03:52PM 40.7167 -74.1500 210° Southwest 163 188 1,500  Level New York TRACON
03:53PM 40.7667 -74.1000 37° Northeast 220 253 3,700 2,400 Climbing New York TRACON
03:54PM 40.7833 -74.1833 285° West 293 337 6,300 2,700 Climbing New York TRACON
03:55PM 40.3575 -74.3338 180° South  Level Estimated
03:55PM 40.7167 -74.2167 201° Southwest 281 323 9,200  Level New York TRACON
03:56PM 40.2458 -74.3885 180° South  Level Estimated
03:56PM 40.6500 -74.2500 201° Southwest 290 334 12,100  Level New York TRACON
03:57PM 40.1340 -74.4430 224° Southwest  Level Estimated
03:57PM 40.5667 -74.2167 163° South 304 350 14,700  Level New York TRACON
03:58PM 40.0223 -74.4973 210° Southwest  Level Estimated
04:00PM 40.4175 -74.0694 143° Southeast 318 366 17,000  Level New York Center
04:01PM 40.3244 -74.0514 172° South 313 360 17,000  Level New York Center
04:02PM 40.2542 -74.0969 206° Southwest 313 360 17,000 600 Level New York Center
04:03PM 40.1514 -74.2156 221° Southwest 303 349 18,700 1,440 Climbing Washington Center
04:04PM 40.1403 -74.3350 263° West 303 349 20,800 1,860 Climbing Washington Center
04:05PM 40.1164 -74.4547 255° West 324 373 22,400 1,500 Climbing Washington Center
04:06PM 40.0250 -74.4889 196° South 300 345 23,900 720 Climbing Washington Center
04:07PM 39.9294 -74.5067 188° South 305 351 23,900  Level Washington Center
04:08PM 39.8317 -74.5217 187° South 332 382 23,900  Level Washington Center
04:09PM 39.7383 -74.5608 198° South 345 397 23,900 180 Level Washington Center
04:10PM 39.6558 -74.6617 223° Southwest 373 429 24,300 360 Climbing Washington Center
04:11PM 39.5794 -74.7569 224° Southwest 398 458 24,700 780 Climbing Washington Center
04:12PM 39.4906 -74.8708 225° Southwest 431 496 25,900 1,020 Climbing Washington Center
04:13PM 39.3994 -74.9872 225° Southwest 446 513 26,800 900 Climbing Washington Center
04:14PM 39.3061 -75.0981 223° Southwest 459 528 27,800 1,140 Climbing Washington Center
04:15PM 39.1897 -75.1686 205° Southwest 459 528 29,100 1,380 Climbing Washington Center
04:16PM 39.0753 -75.2386 205° Southwest 459 528 30,600 1,320 Climbing Washington Center
04:17PM 38.9631 -75.3058 205° Southwest 454 522 31,900 1,200 Climbing Washington Center
04:18PM 38.8506 -75.3731 205° Southwest 449 517 33,000 1,080 Climbing Washington Center
04:19PM 38.7400 -75.4372 204° Southwest 444 511 34,100 1,020 Climbing Washington Center
04:20PM 38.6317 -75.5067 207° Southwest 444 511 35,100 840 Climbing Washington Center
04:21PM 38.5150 -75.5439 194° South 438 504 35,900 360 Climbing Washington Center
04:22PM 38.3983 -75.5678 189° South 425 489 35,900  Level Washington Center
04:23PM 38.2650 -75.5917 188° South 430 495 36,000  Climbing Washington Center
04:24PM 38.1481 -75.6128 188° South 430 495 36,000 -60 Level Washington Center
04:25PM 38.0314 -75.6419 191° South 430 495 35,900  Descending Washington Center
04:26PM 37.9167 -75.6917 199° South 430 495 36,000  Climbing Washington Center
04:27PM 37.8103 -75.7600 207° Southwest 436 502 36,000 -60 Level Washington Center
04:28PM 37.7017 -75.8281 206° Southwest 436 502 35,900 -60 Descending Washington Center
04:29PM 37.5972 -75.8986 208° Southwest 441 507 35,900  Level Washington Center
04:30PM 37.4864 -75.9661 206° Southwest 441 507 36,000  Climbing Washington Center
04:31PM 37.3797 -76.0361 208° Southwest 436 502 36,000  Level Washington Center
04:32PM 37.2731 -76.1033 207° Southwest 431 496 36,000  Level Washington Center
04:33PM 37.1603 -76.1653 204° Southwest 431 496 36,000  Level Washington Center
04:34PM 37.0494 -76.2347 207° Southwest 436 502 36,000  Level Washington Center
04:35PM 36.9406 -76.3039 207° Southwest 436 502 36,000  Level Washington Center
04:36PM 36.8294 -76.3731 206° Southwest 436 502 36,000  Level Washington Center
04:37PM 36.7225 -76.4419 195° South 436 502 36,100 -60 Climbing Washington Center
04:38PM 36.7156 -76.4115 195° South  Level FlightAware Approximate
04:38PM 36.6075 -76.4769 194° South 436 502 35,900  Level Washington Center
04:39PM 36.4886 -76.4961 187° South 432 497 35,900  Level Washington Center
04:40PM 36.3675 -76.5156 187° South 437 503 35,900  Level Washington Center
04:41PM 36.2461 -76.5397 189° South 437 503 35,900  Level Washington Center
04:43PM 36.1325 -76.5870 199° South  Level FlightAware Approximate
04:44PM 35.8967 -76.6586 202° Southwest 442 509 36,000  Level Washington Center
04:45PM 35.7836 -76.7136 202° Southwest 442 509 35,900 -60 Descending Washington Center
04:46PM 35.6806 -76.7939 212° Southwest 437 503 35,900  Level Washington Center
04:47PM 35.5858 -76.8767 215° Southwest 437 503 36,000  Climbing Washington Center
04:48PM 35.4828 -76.9592 213° Southwest 437 503 36,000  Level Washington Center
04:49PM 35.3817 -77.0417 214° Southwest 443 510 36,000  Level Washington Center
04:50PM 35.4387 -76.9069 202° Southwest  Level FlightAware Approximate
04:50PM 35.2803 -77.1239 214° Southwest 443 510 36,000  Level Washington Center
04:51PM 35.1792 -77.2083 214° Southwest 449 517 36,000  Level Washington Center
04:52PM 35.0756 -77.2925 214° Southwest 449 517 36,000  Level Washington Center
04:53PM 34.9722 -77.3739 213° Southwest 449 517 36,000  Level Washington Center
04:54PM 34.8708 -77.4553 213° Southwest 449 517 36,000  Level Washington Center
04:55PM 34.7714 -77.5414 215° Southwest 449 517 36,000  Level Washington Center
04:56PM 34.6700 -77.6250 214° Southwest 449 517 36,000 -60 Level Washington Center
04:57PM 34.5664 -77.7056 213° Southwest 449 517 35,900  Descending Washington Center
04:58PM 34.4625 -77.7886 213° Southwest 449 517 36,000  Climbing Washington Center
04:59PM 34.3569 -77.8636 210° Southwest 449 517 36,000  Level Washington Center
05:00PM 34.2475 -77.9058 198° South 449 517 36,000  Level Washington Center
05:03PM 33.9808 -77.9817 193° South 458 527 36,000  Level Jacksonville Center
05:04PM 33.8592 -78.0186 194° South 458 527 36,000  Level Jacksonville Center
05:05PM 33.7375 -78.0553 194° South 453 521 36,000  Level Jacksonville Center
05:06PM 33.6156 -78.0894 193° South 447 514 36,000  Level Jacksonville Center
05:07PM 33.4958 -78.1208 192° South 447 514 36,000 -60 Level Jacksonville Center
05:08PM 33.3761 -78.1544 193° South 447 514 35,900 -60 Descending Jacksonville Center
05:09PM 33.2564 -78.1881 193° South 447 514 35,900  Level Jacksonville Center
05:10PM 33.1364 -78.2217 193° South 447 514 35,900  Level Jacksonville Center
05:11PM 33.0189 -78.2575 194° South 447 514 36,000  Climbing Jacksonville Center
05:12PM 32.8969 -78.2911 193° South 447 514 35,900  Descending Jacksonville Center
05:13PM 32.7772 -78.3244 193° South 447 514 36,000  Climbing Jacksonville Center
05:14PM 32.6572 -78.3553 192° South 447 514 36,000  Level Jacksonville Center
05:15PM 32.5394 -78.3906 194° South 447 514 36,000  Level Jacksonville Center
05:16PM 32.4194 -78.4211 192° South 447 514 36,000 -60 Level Jacksonville Center
05:17PM 32.3019 -78.4589 195° South 447 514 35,900 -60 Descending Jacksonville Center
05:18PM 32.1842 -78.4939 194° South 447 514 35,900  Level Jacksonville Center
05:19PM 32.0622 -78.5317 195° South 442 509 36,000  Climbing Jacksonville Center
05:20PM 31.9444 -78.5667 194° South 447 514 35,900 -60 Descending Jacksonville Center
05:21PM 31.8264 -78.5967 192° South 447 514 35,900  Level Jacksonville Center
05:22PM 31.7067 -78.6317 194° South 447 514 36,000  Climbing Jacksonville Center
05:23PM 31.5867 -78.6686 195° South 447 514 36,000 -60 Level Jacksonville Center
05:24PM 31.4669 -78.7033 194° South 447 514 35,900  Descending Jacksonville Center
05:25PM 31.3489 -78.7356 193° South 447 514 36,000  Climbing Jacksonville Center
05:26PM 31.2289 -78.7675 193° South 447 514 36,000  Level Jacksonville Center
05:27PM 31.0986 -78.8072 195° South 436 502 36,000 -60 Level Jacksonville Center
05:28PM 30.9786 -78.8414 194° South 436 502 35,900 -60 Descending Jacksonville Center
05:29PM 30.8608 -78.8756 194° South 448 516 35,900  Level Jacksonville Center
05:30PM 30.7428 -78.9094 194° South 444 511 35,900  Level Jacksonville Center
05:31PM 30.5589 -78.9581 193° South 462 532 36,000  Climbing Miami Center
05:32PM 30.4417 -78.9917 194° South 456 525 36,000 -60 Level Miami Center
05:33PM 30.3244 -79.0231 193° South 449 517 35,900 -60 Descending Miami Center
05:34PM 30.1989 -79.0542 192° South 449 517 35,900  Level Miami Center
05:35PM 30.0775 -79.0853 193° South 449 517 36,000  Climbing Miami Center
05:36PM 29.9683 -79.1261 198° South 449 517 36,000  Level Miami Center
05:37PM 29.8428 -79.1519 190° South 444 511 36,000  Level Miami Center
05:38PM 29.7236 -79.1831 193° South 444 511 36,000  Level Miami Center
05:39PM 29.6042 -79.2161 194° South 444 511 36,000  Level Miami Center
05:40PM 29.4764 -79.2397 189° South 454 522 36,000  Level Miami Center
05:41PM 29.3592 -79.2706 193° South 449 517 36,000  Level Miami Center
05:42PM 29.2397 -79.3011 193° South 449 517 36,000  Level Miami Center
05:43PM 29.1244 -79.3319 193° South 443 510 36,000  Level Miami Center
05:44PM 29.0008 -79.3600 191° South 443 510 36,000  Level Miami Center
05:45PM 28.8814 -79.3928 194° South 443 510 36,000  Level Miami Center
05:46PM 28.7639 -79.4233 193° South 448 516 36,000  Level Miami Center
05:47PM 28.6572 -79.4492 192° South 448 516 36,000  Level Miami Center
05:48PM 28.5356 -79.4769 191° South 448 516 36,000  Level Miami Center
05:49PM 28.4139 -79.5072 192° South 448 516 36,000  Level Miami Center
05:50PM 28.2944 -79.5375 193° South 448 516 36,000  Level Miami Center
05:51PM 28.1728 -79.5675 192° South 448 516 36,000  Level Miami Center
05:52PM 28.0511 -79.5953 191° South 448 516 36,000  Level Miami Center
05:53PM 27.9317 -79.6231 192° South 448 516 36,000 -300 Level Miami Center
05:54PM 27.8100 -79.6553 193° South 448 516 35,400 -1,020 Descending Miami Center
05:55PM 27.6903 -79.6850 192° South 448 516 34,000 -1,740 Descending Miami Center
05:56PM 27.5506 -79.6864 181° South 453 521 32,000 -2,700 Descending Miami Center
05:57PM 27.4211 -79.6786 177° South 459 528 28,600 -3,780 Descending Miami Center
05:58PM 27.2897 -79.6706 177° South 464 534 24,500 -3,540 Descending Miami Center
05:59PM 27.1750 -79.6608 176° South 464 534 21,600 -2,580 Descending Miami Center
06:00PM 27.0522 -79.6508 176° South 459 528 19,400 -2,520 Descending Miami Center
06:01PM 26.9228 -79.6408 176° South 428 493 16,600 -1,920 Descending Miami Center
06:02PM 26.8181 -79.6522 186° South 399 459 15,600 -1,800 Descending Miami Center
06:03PM 26.7275 -79.6944 203° Southwest 366 421 13,100 -2,400 Descending Miami Center
06:04PM 26.6433 -79.7342 203° Southwest 349 402 10,900 -2,220 Descending Miami Center
06:04PM 26.6306 -79.7431 212° Southwest 322 371 10,700 -1,740 Descending Miami Center
06:05PM 26.5800 -79.7675 203° Southwest 296 341 9,500 -1,920 Descending Miami Center
06:05PM 26.5672 -79.7717 196° South 316 364 9,000 -1,380 Descending Miami Center
06:06PM 26.5019 -79.8050 205° Southwest 280 322 8,000 -1,020 Descending Miami Center
06:06PM 26.4956 -79.8047 178° South 291 335 8,000  Level Miami Center
06:07PM 26.4322 -79.8356 204° Southwest 287 330 8,000  Level Miami Center
06:07PM 26.4281 -79.8381 208° Southwest 291 335 8,000  Level Miami Center
06:08PM 26.3539 -79.8869 211° Southwest 291 335 8,000  Level Miami Center
06:09PM 26.3008 -79.9367 220° Southwest 291 335 8,000 -60 Level Miami Center
06:10PM 26.2367 -79.9997 221° Southwest 284 327 7,900  Descending Miami Center
06:10PM 26.2344 -80.0022 225° Southwest 284 327 8,000  Climbing Miami Center
06:11PM 26.1789 -80.0631 225° Southwest 289 333 7,900 -120 Descending Miami Center
06:11PM 26.1747 -80.0700 236° Southwest 288 331 7,900 -1,320 Level Miami Center
06:12PM 26.1519 -80.1433 251° West 276 318 6,600 -1,380 Descending Miami Center
06:12PM 26.1497 -80.1503 250° West 280 322 6,500 -540 Descending Miami Center
06:13PM 26.1481 -80.2242 269° West 239 275 6,100 -540 Descending Miami Center
06:13PM 26.1503 -80.2244 354° North 268 308 6,000 -1,200 Descending Miami Center
06:14PM 26.1486 -80.2936 268° West 255 293 4,900 -1,140 Descending Miami Center
06:14PM 26.1486 -80.2936 268° West 225 259 4,900 -1,020 Level Miami Center
06:15PM 26.1161 -80.3483 237° Southwest 230 265 3,900 -1,260 Descending Miami Center
06:16PM 26.0753 -80.3056 137° Southeast 182 209 2,300 -1,140 Descending Miami Center
06:17PM 26.0742 -80.2569 91° East 145 167 1,500 -780 Descending Miami Center
06:18PM 26.0753 -80.2153 88° East 135 155 800 -720 Descending Miami Center
06:20PM 26.0667 -80.1500 103° East  Level FlightAware Approximate
06:27PM 26.0726 -80.1527 103° East  Level Estimated